Latest Coastal Weather Observations for Smithton

IDT60701

Issued at 1:32 pm EDT Tuesday 2 March 2021 (issued every 10 minutes, with the page automatically refreshed every 10 minutes)

About coastal observations | Map of coastal stations | Coastal observations for TAS | Marine services | Other Formats
Station Details ID: 091292 Name: SMITHTON AERODROME Lat: -40.83 Lon: 145.08 Height: 7.5 m
Data from the previous 72 hours. | See also: Recent months at Smithton
Date/Time
EDT
Wind Sea
Height
m
Swell Vis
km
Cloud Weather Temp
°C
Press
MSL
hPa
Rain since
9am
mm
Dir  Spd
kts
Gust
kts
Height
m
Period
s
Dir
02/01:30pm SSW 20 27 - - - - - - - 14.8 1016.8 0.0
02/01:00pm SW 19 26 - - - - - - - 14.4 1016.8 0.0
02/12:35pm SSW 17 28 - - - - - - - 14.6 1016.9 0.0
02/12:30pm SSW 19 24 - - - - - - - 14.9 1016.9 0.0
02/12:02pm SSW 19 30 - - - - - - - 13.9 1016.9 0.0
02/12:00pm SSW 17 26 - - - - - - - 14.5 1016.9 0.0
02/11:30am SSW 19 27 - - - - - - - 14.5 1016.8 0.0
02/11:00am SSW 21 31 - - - - - - - 13.8 1016.7 0.0
02/10:30am SSW 19 29 - - - - - - - 13.4 1016.6 0.0
02/10:04am SSW 17 27 - - - - - - - 12.5 1016.5 0.0
02/10:00am SW 18 27 - - - - - - - 12.2 1016.4 0.0
02/09:40am SSW 15 25 - - - - - - - 14.1 1016.3 0.0
02/09:30am SSW 15 21 - - - - - - - 12.8 1016.2 0.0
02/09:00am SW 13 17 - - - - - - - 12.0 1016.2 0.4
02/08:30am SW 12 17 - - - - - - - 12.3 1016.1 0.4
02/08:00am SW 9 11 - - - - - - - 10.3 1015.9 0.4
02/07:30am SW 7 8 - - - - - - - 6.9 1015.5 0.4
02/07:00am SW 8 10 - - - - - - - 7.8 1015.3 0.4
02/06:30am SSW 12 17 - - - - - - - 9.7 1015.1 0.4
02/06:00am SW 13 17 - - - - - - - 9.5 1014.7 0.4
02/05:30am SW 11 14 - - - - - - - 9.2 1014.5 0.4
02/05:00am SW 12 16 - - - - - - - 9.9 1014.3 0.4
02/04:30am SW 7 8 - - - - - - - 7.7 1014.1 0.4
02/04:00am SSW 7 9 - - - - - - - 8.6 1013.9 0.4
02/03:30am SW 9 13 - - - - - - - 8.6 1013.8 0.4
02/03:00am WSW 12 18 - - - - - - - 9.6 1013.9 0.4
02/02:30am SW 13 19 - - - - - - - 9.9 1013.9 0.4
02/02:00am SW 16 23 - - - - - - - 10.3 1013.8 0.4
02/01:30am SSW 13 17 - - - - - - - 10.0 1013.7 0.4
02/01:00am SW 16 21 - - - - - - - 11.2 1013.3 0.4
02/12:30am SW 13 18 - - - - - - - 10.3 1013.3 0.4
02/12:00am SW 15 23 - - - - - - - 10.4 1013.2 0.4
 
Date/Time
EDT
Wind Sea
Height
m
Swell Vis
km
Cloud Weather Temp
°C
Press
MSL
hPa
Rain since
9am
mm
Dir  Spd
kts
Gust
kts
Height
m
Period
s
Dir
01/11:30pm SW 15 21 - - - - - - - 10.4 1013.1 0.4
01/11:00pm SW 14 19 - - - - - - - 10.6 1012.9 0.4
01/10:30pm SW 14 21 - - - - - - - 10.5 1012.8 0.4
01/10:01pm SW 18 28 - - - - - - - 11.2 1012.7 0.4
01/10:00pm SW 17 24 - - - - - - - 11.1 1012.6 0.4
01/09:30pm SW 21 27 - - - - - - - 11.8 1012.3 0.4
01/09:00pm SW 17 24 - - - - - - - 11.5 1011.9 0.4
01/08:33pm SW 19 29 - - - - - - - 11.9 1011.5 0.4
01/08:30pm SW 20 27 - - - - - - - 12.0 1011.5 0.4
01/08:10pm SW 20 33 - - - - - - - 12.2 1011.0 0.4
01/08:00pm SW 21 29 - - - - - - - 12.1 1010.8 0.4
01/07:45pm SW 23 37 - - - - - - - 12.5 1010.4 0.4
01/07:30pm SW 19 26 - - - - - - - 12.3 1010.3 0.4
01/07:00pm SW 22 30 - - - - - - - 12.5 1009.9 0.4
01/06:30pm SW 24 34 - - - - - - - 13.5 1009.4 0.4
01/06:00pm SW 24 34 - - - - - - - 13.8 1009.0 0.4
01/05:33pm SW 23 33 - - - - - - - 14.1 1008.9 0.4
01/05:30pm SW 25 33 - - - - - - - 14.0 1008.8 0.4
01/05:03pm SW 24 34 - - - - - - - 15.2 1008.2 0.4
01/05:00pm SW 24 32 - - - - - - - 15.3 1008.2 0.4
01/04:31pm SW 24 34 - - - - - - - 16.1 1008.1 0.4
01/04:30pm SW 24 33 - - - - - - - 16.0 1008.1 0.4
01/04:00pm SW 27 38 - - - - - - - 14.8 1008.2 0.4
01/03:30pm WSW 22 36 - - - - - - - 16.6 1008.4 0.4
01/03:28pm SW 21 36 - - - - - - - 16.5 1008.3 0.4
01/03:00pm WSW 19 27 - - - - - - Recent precip. 14.7 1008.5 0.4
01/02:30pm SW 21 27 - - - - - - - 15.0 1008.5 0.4
01/02:07pm WSW 22 32 - - - - - - - 13.9 1008.5 0.2
01/02:00pm WSW 21 29 - - - - - - - 16.2 1008.2 0.2
01/01:40pm WSW 21 31 - - - - - - - 17.4 1007.6 0.2
01/01:30pm WSW 22 29 - - - - - - - 18.9 1007.7 0.2
01/01:00pm WSW 19 28 - - - - - - - 17.5 1008.1 0.2
01/12:30pm W 20 29 - - - - - - - 15.6 1008.4 0.0
01/12:23pm W 16 26 - - - - - - - 17.4 1008.2 0.0
01/12:00pm W 16 22 - - - - - - - 19.0 1008.1 0.0
01/11:30am W 14 18 - - - - - - - 19.1 1008.5 0.0
01/11:00am WSW 14 21 - - - - - - - 18.0 1008.7 0.0
01/10:30am WSW 14 18 - - - - - - - 17.8 1008.8 0.0
01/10:00am SW 13 17 - - - - - - - 17.7 1008.8 0.0
01/09:30am SW 11 16 - - - - - - - 17.1 1008.6 0.0
01/09:00am SW 9 12 - - - - - - - 15.1 1008.7 0.0
01/08:30am SW 7 9 - - - - - - - 14.6 1008.6 0.0
01/08:00am SW 4 6 - - - - - - - 13.3 1008.4 0.0
01/07:30am SSW 5 5 - - - - - - - 12.9 1008.3 0.0
01/07:00am SSW 6 7 - - - - - - - 11.7 1008.2 0.0
01/06:30am SSW 5 6 - - - - - - - 10.8 1008.2 0.0
01/06:00am S 5 6 - - - - - - - 12.3 1008.0 0.0
01/05:30am S 5 6 - - - - - - - 13.5 1008.1 0.0
01/05:00am SSW 4 6 - - - - - - - 13.4 1008.3 0.0
01/04:30am CALM 0 0 - - - - - - - 12.8 1008.1 0.0
01/04:00am W 4 5 - - - - - - - 12.9 1008.3 0.0
01/03:30am W 4 4 - - - - - - - 12.9 1008.7 0.0
01/03:00am CALM 0 0 - - - - - - - 12.1 1008.8 0.0
01/02:30am CALM 0 0 - - - - - - - 13.2 1008.9 0.0
01/02:00am CALM 0 0 - - - - - - - 13.4 1009.3 0.0
01/01:30am CALM 0 0 - - - - - - - 13.7 1009.8 0.0
01/01:00am CALM 0 0 - - - - - - - 13.4 1009.7 0.0
01/12:30am CALM 0 0 - - - - - - - 13.8 1009.9 0.0
01/12:00am CALM 0 0 - - - - - - - 13.5 1010.1 0.0
 
Date/Time
EDT
Wind Sea
Height
m
Swell Vis
km
Cloud Weather Temp
°C
Press
MSL
hPa
Rain since
9am
mm
Dir  Spd
kts
Gust
kts
Height
m
Period
s
Dir
28/11:30pm W 4 5 - - - - - - - 13.9 1010.5 0.0
28/11:00pm CALM 0 0 - - - - - - - 13.1 1010.3 0.0
28/10:30pm NW 3 4 - - - - - - - 13.0 1010.7 0.0
28/10:00pm NW 3 4 - - - - - - - 14.4 1010.6 0.0
28/09:30pm CALM 0 0 - - - - - - - 15.4 1010.5 0.0
28/09:00pm CALM 0 0 - - - - - - - 15.6 1010.6 0.0
28/08:30pm CALM 0 0 - - - - - - - 16.3 1010.4 0.0
28/08:00pm NNW 4 5 - - - - - - - 16.6 1010.6 0.0
28/07:30pm N 5 7 - - - - - - - 16.9 1010.5 0.0
28/07:00pm N 6 8 - - - - - - - 17.6 1010.4 0.0
28/06:30pm N 9 11 - - - - - - - 18.3 1010.5 0.0
28/06:00pm N 8 13 - - - - - - - 18.8 1010.6 0.0
28/05:30pm N 10 14 - - - - - - - 18.6 1010.6 0.0
28/05:00pm NNE 9 13 - - - - - - - 19.7 1010.5 0.0
28/04:30pm NNE 10 13 - - - - - - - 20.0 1010.7 0.0
28/04:00pm NNE 11 13 - - - - - - - 20.1 1011.1 0.0
28/03:30pm N 10 13 - - - - - - - 20.2 1011.3 0.0
28/03:00pm NNE 10 14 - - - - - - - 20.3 1011.5 0.0
28/02:30pm N 11 16 - - - - - - - 21.1 1011.8 0.0
28/02:00pm NNE 11 15 - - - - - - - 20.8 1012.2 0.0
28/01:30pm NNE 9 13 - - - - - - - 20.4 1012.4 0.0
28/01:00pm NE 10 13 - - - - - - - 21.0 1012.7 0.0
28/12:30pm NNE 10 13 - - - - - - - 20.7 1013.1 0.0
28/12:00pm NE 9 13 - - - - - - - 20.1 1013.5 0.0
28/11:30am NE 9 12 - - - - - - - 19.8 1013.7 0.0
28/11:00am NE 9 12 - - - - - - - 19.8 1013.8 0.0
28/10:30am NE 8 10 - - - - - - - 19.3 1013.8 0.0
28/10:00am NE 7 9 - - - - - - - 18.4 1013.9 0.0
28/09:30am E 6 8 - - - - - - - 18.3 1013.5 0.0
28/09:00am S 1 4 - - - - - - - 15.5 1013.7 0.0
28/08:30am S 3 4 - - - - - - - 13.9 1013.4 0.0
28/08:00am S 3 4 - - - - - - - 12.9 1013.3 0.0
28/07:30am S 2 6 - - - - - - - 10.4 1013.3 0.0
28/07:00am S 1 3 - - - - - - - 10.2 1013.0 0.0
28/06:30am S 4 5 - - - - - - - 10.6 1013.1 0.0
28/06:00am CALM 0 0 - - - - - - - 11.9 1012.8 0.0
28/05:30am S 4 5 - - - - - - - 12.6 1012.7 0.0
28/05:00am S 4 5 - - - - - - - 12.5 1012.9 0.0
28/04:30am S 6 7 - - - - - - - 12.6 1012.9 0.0
28/04:00am S 3 4 - - - - - - - 12.9 1013.0 0.0
28/03:30am S 6 7 - - - - - - - 13.2 1013.1 0.0
28/03:00am S 3 8 - - - - - - - 12.4 1013.3 0.0
28/02:30am SSE 1 3 - - - - - - - 12.9 1013.6 0.0
28/02:00am CALM 0 0 - - - - - - - 13.5 1013.9 0.0
28/01:30am S 6 7 - - - - - - - 13.8 1014.0 0.0
28/01:00am S 3 4 - - - - - - - 13.4 1014.0 0.0
28/12:30am SSW 3 6 - - - - - - - 13.1 1013.8 0.0
28/12:00am CALM 0 0 - - - - - - - 13.2 1013.7 0.0
 
Date/Time
EDT
Wind Sea
Height
m
Swell Vis
km
Cloud Weather Temp
°C
Press
MSL
hPa
Rain since
9am
mm
Dir  Spd
kts
Gust
kts
Height
m
Period
s
Dir
27/11:30pm CALM 0 0 - - - - - - - 13.0 1013.8 0.0
27/11:00pm CALM 0 0 - - - - - - - 12.8 1013.8 0.0
27/10:30pm SW 3 4 - - - - - - - 13.2 1014.1 0.0
27/10:00pm SW 3 4 - - - - - - - 13.3 1014.1 0.0
27/09:30pm SW 5 5 - - - - - - - 13.3 1014.0 0.0
27/09:00pm CALM 0 0 - - - - - - - 14.2 1013.9 0.0
27/08:30pm NNE 1 3 - - - - - - - 14.7 1013.6 0.0
27/08:00pm CALM 0 0 - - - - - - - 15.7 1013.6 0.0
27/07:30pm NNE 4 5 - - - - - - - 16.3 1013.6 0.0
27/07:00pm NNE 5 6 - - - - - - - 16.9 1013.5 0.0
27/06:30pm N 6 8 - - - - - - - 17.3 1013.5 0.0
27/06:00pm NNE 6 8 - - - - - - - 17.8 1013.5 0.0
27/05:30pm NE 7 10 - - - - - - - 18.0 1013.5 0.0
27/05:00pm NE 7 9 - - - - - - - 18.2 1013.6 0.0
27/04:30pm NNE 8 9 - - - - - - - 18.3 1013.5 0.0
27/04:00pm NE 8 11 - - - - - - - 18.7 1013.6 0.0
27/03:30pm NE 9 12 - - - - - - - 18.8 1013.8 0.0
27/03:00pm NE 9 13 - - - - - - - 18.7 1014.1 0.0
27/02:30pm NE 8 13 - - - - - - - 19.1 1014.3 0.0
27/02:00pm ENE 7 11 - - - - - - - 19.9 1014.5 0.0

Other formats

Comma delimited format used in spreadsheet applications
http://www.bom.gov.au/fwo/IDT60701/IDT60701.94953.axf

JavaScript Object Notation format (JSON) in row-major order
http://www.bom.gov.au/fwo/IDT60701/IDT60701.94953.json

Data quality

Most of these data are generated automatically and are frequently updated. Quality checks on data are not normally performed. It is possible for incorrect values to appear. Refer to information at About Latest Weather Observations and please check the disclaimer before using these data.